Terminal Aerodrome Forecast
Issued by NWS New Orleans/Baton Rouge, LA

Home | Current Version | Previous Version | Text Only | Print | Product List | Glossary On
Versions: 1 2 3 4 5 6 7 8 9 10 11 12 13 14 15 16
225
FTUS44 KLIX 231721
TAFBTR
TAF
KBTR 231721Z 2318/2418 00000KT P6SM BKN014 OVC050
     FM232100 14008KT P6SM SCT025 BKN050
      TEMPO 2321/2324 4SM -TSRA BKN025CB
     FM240400 16004KT P6SM SCT008 BKN020
     FM240900 15005KT 2SM BR BKN003 BKN015 PROB30 2412/2415 3/4SM
      -TSRA BR OVC003CB
     FM241500 15005KT P6SM OVC015=

USA.gov is the U.S. government's official web portal to all federal, state and local government web resources and services.